»·PEaware :: N335AK KTRM-KBUR

N335AK :: KTRM-KBUR

FLIGHT INFORMATION

Flight Status: Arrived
Operator: Privately registered:
United States
More flights under this callsign
Pilot: Gabor H. (24209)
Aircraft: Unknown
(EPIC)
More flights by this aircraft type
Origin: KTRM Desert Resorts Regl
United States
Destination: KBUR Bob Hope-Burbank
United States
More flights between these airports :: More routes between these airports
Route: V388 DEWAY POM VNY
File this flight plan on PilotEdge
Remarks:
Altitude:
(Current/Filed)
12,000ft
Speed:
(Current/Filed)
325kts
Departed: 09-Oct-20 10:39 AM
Arrived: 09-Oct-20 11:22 AM
Distance/Time
Traveled:
115nm/0:43
Distance/Time
To Go:
Arrived

Flight Plot

Page will automatically refresh every two minutes.

Flight plan parsing failed; only flown route is shown


Map Options




Map Legend


Flown Route
Filed Route
Departure Airport
Arrival Airport
Navaid (VOR, NDB)
Fix

Horizontal Profiles

Position Reports

Time Latitude Longitude Heading Altitude Ground
Speed
09-Oct-20 10:23 33.638040 -116.158162 271 -112ft 0kts
09-Oct-20 10:24 33.638040 -116.158162 271 -112ft 0kts
09-Oct-20 10:25 33.638040 -116.158162 271 -112ft 0kts
09-Oct-20 10:26 33.638040 -116.158162 271 -112ft 0kts
09-Oct-20 10:27 33.638040 -116.158162 271 -112ft 0kts
09-Oct-20 10:28 33.638040 -116.158162 271 -112ft 0kts
09-Oct-20 10:29 33.638040 -116.158162 271 -112ft 0kts
09-Oct-20 10:30 33.638040 -116.158162 271 -112ft 0kts
09-Oct-20 10:31 33.638040 -116.158162 271 -112ft 0kts
09-Oct-20 10:32 33.636998 -116.157774 169 -113ft 15kts
09-Oct-20 10:33 33.632078 -116.157730 181 -118ft 16kts
09-Oct-20 10:34 33.628607 -116.157728 179 -121ft 11kts
09-Oct-20 10:34 33.625425 -116.157733 178 -124ft 14kts
09-Oct-20 10:36 33.620810 -116.157750 178 -128ft 12kts
09-Oct-20 10:36 33.620874 -116.158887 264 -127ft 0kts
09-Oct-20 10:37 33.620834 -116.159834 314 -126ft 0kts
09-Oct-20 10:38 33.648061 -116.180363 14 1523ft 182kts
09-Oct-20 10:39 33.641221 -116.139559 188 5120ft 186kts
09-Oct-20 10:40 33.588598 -116.131914 150 7741ft 233kts
09-Oct-20 10:41 33.533759 -116.090227 127 10617ft 242kts
09-Oct-20 10:42 33.568824 -116.040713 340 12023ft 286kts
09-Oct-20 10:43 33.608709 -116.120429 299 12005ft 294kts
09-Oct-20 10:44 33.662659 -116.198599 316 12003ft 316kts
09-Oct-20 10:45 33.727772 -116.271019 316 12014ft 321kts
09-Oct-20 10:46 33.793425 -116.344209 316 12032ft 321kts
09-Oct-20 10:47 33.858969 -116.417442 316 12045ft 322kts
09-Oct-20 10:48 33.891672 -116.514860 286 12045ft 319kts
09-Oct-20 10:49 33.917651 -116.617251 286 12045ft 319kts
09-Oct-20 10:50 33.943512 -116.719583 285 12083ft 318kts
09-Oct-20 10:51 33.959389 -116.823945 277 12140ft 316kts
09-Oct-20 10:52 33.972672 -116.928359 278 12176ft 315kts
09-Oct-20 10:53 33.985892 -117.033064 278 12172ft 314kts
09-Oct-20 10:54 33.998920 -117.136954 279 12168ft 314kts
09-Oct-20 10:55 34.011892 -117.240923 279 11600ft 304kts
09-Oct-20 10:56 34.023917 -117.338184 279 10374ft 281kts
09-Oct-20 10:57 34.035279 -117.430695 279 9164ft 277kts
09-Oct-20 10:58 34.046506 -117.522670 279 8036ft 273kts
09-Oct-20 10:59 34.057277 -117.611567 279 8008ft 266kts
09-Oct-20 11:00 34.067939 -117.699950 278 8008ft 266kts
09-Oct-20 11:01 34.078936 -117.788608 283 8006ft 271kts
09-Oct-20 11:02 34.097271 -117.877606 283 8006ft 273kts
09-Oct-20 11:03 34.115797 -117.966724 284 7997ft 274kts
09-Oct-20 11:04 34.128243 -118.056968 271 7832ft 268kts
09-Oct-20 11:05 34.129205 -118.146019 271 6223ft 262kts
09-Oct-20 11:06 34.130047 -118.223532 271 5989ft 206kts
09-Oct-20 11:07 34.130700 -118.291791 271 5993ft 204kts
09-Oct-20 11:08 34.131388 -118.361029 271 5991ft 206kts
09-Oct-20 11:09 34.132040 -118.430356 271 5991ft 207kts
09-Oct-20 11:10 34.132788 -118.501116 271 5993ft 216kts
09-Oct-20 11:11 34.135152 -118.574427 271 5626ft 219kts
09-Oct-20 11:12 34.137891 -118.647584 272 4313ft 213kts
09-Oct-20 11:13 34.170703 -118.670766 57 4034ft 167kts
09-Oct-20 11:14 34.191590 -118.626640 61 3600ft 153kts
09-Oct-20 11:15 34.200636 -118.578482 93 3593ft 151kts
09-Oct-20 11:16 34.199811 -118.528102 92 3344ft 141kts
09-Oct-20 11:17 34.199273 -118.483685 88 2673ft 132kts
09-Oct-20 11:18 34.198790 -118.442330 89 2051ft 113kts
09-Oct-20 11:19 34.198373 -118.405332 89 1422ft 112kts
09-Oct-20 11:20 34.197912 -118.367305 90 784ft 88kts
09-Oct-20 11:21 34.198613 -118.360263 358 779ft 1kts
09-Oct-20 11:22 34.200158 -118.358721 30 779ft 10kts
09-Oct-20 11:23 34.200283 -118.358799 262 779ft 0kts
09-Oct-20 11:24 34.200283 -118.358799 262 779ft 0kts
09-Oct-20 11:25 34.200283 -118.358799 262 779ft 0kts
09-Oct-20 11:26 34.200283 -118.358799 262 779ft 0kts
09-Oct-20 11:27 34.200283 -118.358799 262 779ft 0kts

Navigation Log

Ident Type
Flight plan parsing failed, navigation log unavailable